createdAt,value
2019-06-07T00:00:40.957Z,1010.34
2019-06-07T00:01:40.981Z,1010.28
2019-06-07T00:02:41.009Z,1010.28
2019-06-07T00:03:41.027Z,1010.22
2019-06-07T00:04:41.050Z,1010.24
2019-06-07T00:05:41.074Z,1010.24
2019-06-07T00:06:41.096Z,1010.22
2019-06-07T00:07:41.119Z,1010.23
2019-06-07T00:09:41.165Z,1010.23
2019-06-07T00:10:41.189Z,1010.24
2019-06-07T00:11:41.212Z,1010.19
2019-06-07T00:12:41.235Z,1010.21
2019-06-07T00:13:41.256Z,1010.19
2019-06-07T00:14:41.280Z,1010.2
2019-06-07T00:15:41.311Z,1010.24
2019-06-07T00:16:41.326Z,1010.22
2019-06-07T00:17:41.352Z,1010.21
2019-06-07T00:18:41.372Z,1010.21
2019-06-07T00:19:41.396Z,1010.23
2019-06-07T00:20:41.420Z,1010.22
2019-06-07T00:22:13.341Z,1010.26
2019-06-07T00:22:41.464Z,1010.26
2019-06-07T00:23:41.487Z,1010.22
2019-06-07T00:25:41.539Z,1010.17
2019-06-07T00:26:57.599Z,1010.16
2019-06-07T00:27:41.580Z,1010.14
2019-06-07T00:28:41.602Z,1010.15
2019-06-07T00:29:41.627Z,1010.16
2019-06-07T00:30:51.079Z,1010.18
2019-06-07T00:31:41.671Z,1010.14
2019-06-07T00:32:41.695Z,1010.2
2019-06-07T00:33:41.718Z,1010.16
2019-06-07T00:34:41.740Z,1010.21
2019-06-07T00:35:41.766Z,1010.19
2019-06-07T00:36:41.787Z,1010.21
2019-06-07T00:37:41.810Z,1010.18
2019-06-07T00:38:41.833Z,1010.2
2019-06-07T00:40:51.318Z,1010.22
2019-06-07T00:41:51.355Z,1010.25
2019-06-07T00:42:51.364Z,1010.24
2019-06-07T00:43:51.398Z,1010.25
2019-06-07T00:44:51.416Z,1010.27
2019-06-07T00:46:51.456Z,1010.26
2019-06-07T00:47:51.550Z,1010.2
2019-06-07T00:48:51.504Z,1010.19
2019-06-07T00:49:51.524Z,1010.2
2019-06-07T00:50:51.547Z,1010.15
2019-06-07T00:51:51.968Z,1010.2
2019-06-07T00:53:29.705Z,1010.17
2019-06-07T00:54:22.373Z,1010.1
2019-06-07T00:55:23.323Z,1010.1
2019-06-07T00:56:22.159Z,1010.13
2019-06-07T00:57:22.070Z,1010.08
2019-06-07T00:58:26.644Z,1010.14
2019-06-07T00:59:25.080Z,1010.17
2019-06-07T01:00:23.517Z,1010.21
2019-06-07T01:01:23.184Z,1010.24
2019-06-07T01:02:25.504Z,1010.18
2019-06-07T01:03:24.130Z,1010.21
2019-06-07T01:04:23.001Z,1010.17
2019-06-07T01:06:22.703Z,1010.21
2019-06-07T01:07:21.921Z,1010.21
2019-06-07T01:08:22.607Z,1010.2
2019-06-07T01:09:23.802Z,1010.22
2019-06-07T01:10:35.154Z,1010.26
2019-06-07T01:11:23.467Z,1010.28
2019-06-07T01:12:22.008Z,1010.28
2019-06-07T01:13:23.861Z,1010.27
2019-06-07T01:14:22.553Z,1010.24
2019-06-07T01:15:23.323Z,1010.23
2019-06-07T01:16:23.384Z,1010.18
2019-06-07T01:18:11.853Z,1010.18
2019-06-07T01:19:10.124Z,1010.19
2019-06-07T01:20:10.148Z,1010.21
2019-06-07T01:21:10.171Z,1010.19
2019-06-07T01:22:10.194Z,1010.16
2019-06-07T01:23:46.689Z,1010.15
2019-06-07T01:24:25.634Z,1010.13
2019-06-07T01:25:26.078Z,1010.15
2019-06-07T01:26:26.333Z,1010.18
2019-06-07T01:27:25.203Z,1010.21
2019-06-07T01:28:24.747Z,1010.24
2019-06-07T01:29:24.885Z,1010.23
2019-06-07T01:30:26.355Z,1010.29
2019-06-07T01:31:27.520Z,1010.27
2019-06-07T01:32:24.380Z,1010.31
2019-06-07T01:33:26.709Z,1010.2
2019-06-07T01:34:25.631Z,1010.21
2019-06-07T01:35:23.901Z,1010.18
2019-06-07T01:36:25.126Z,1010.14
2019-06-07T01:37:26.466Z,1010.13
2019-06-07T01:38:24.879Z,1010.1
2019-06-07T01:39:24.565Z,1010.02
2019-06-07T01:40:26.672Z,1010.04
2019-06-07T01:41:25.794Z,1010.06
2019-06-07T01:42:25.163Z,1010.02
2019-06-07T01:43:26.954Z,1010.03
2019-06-07T01:44:25.942Z,1010.07
2019-06-07T01:45:23.781Z,1010.11
2019-06-07T01:46:26.650Z,1010.16
2019-06-07T01:47:25.436Z,1010.18
2019-06-07T01:48:25.969Z,1010.24
2019-06-07T01:49:26.587Z,1010.27
2019-06-07T01:50:25.288Z,1010.31
2019-06-07T01:52:26.275Z,1010.26
2019-06-07T01:53:25.771Z,1010.2
2019-06-07T01:54:51.857Z,1010.21
2019-06-07T01:55:26.643Z,1010.24
2019-06-07T01:56:25.668Z,1010.2
2019-06-07T01:57:37.826Z,1010.23
2019-06-07T01:58:26.452Z,1010.24
2019-06-07T01:59:25.614Z,1010.24
2019-06-07T02:00:25.866Z,1010.24
2019-06-07T02:01:25.862Z,1010.21
2019-06-07T02:02:26.506Z,1010.2
2019-06-07T02:03:26.831Z,1010.21
2019-06-07T02:04:27.173Z,1010.14
2019-06-07T02:05:25.878Z,1010.14
2019-06-07T02:06:27.853Z,1010.08
2019-06-07T02:08:26.506Z,1010.12
2019-06-07T02:09:26.303Z,1010.18
2019-06-07T02:10:27.486Z,1010.23
2019-06-07T02:11:25.982Z,1010.26
2019-06-07T02:12:31.605Z,1010.31
2019-06-07T02:13:27.399Z,1010.32
2019-06-07T02:14:26.104Z,1010.28
2019-06-07T02:15:27.540Z,1010.33
2019-06-07T02:16:25.291Z,1010.33
2019-06-07T02:17:26.659Z,1010.41
2019-06-07T02:18:27.744Z,1010.42
2019-06-07T02:19:24.377Z,1010.48
2019-06-07T02:20:27.085Z,1010.44
2019-06-07T02:21:26.392Z,1010.47
2019-06-07T02:22:25.620Z,1010.47
2019-06-07T02:24:25.185Z,1010.45
2019-06-07T02:25:47.089Z,1010.46
2019-06-07T02:26:25.411Z,1010.43
2019-06-07T02:27:25.648Z,1010.43
2019-06-07T02:30:50.339Z,1010.45
2019-06-07T02:31:28.459Z,1010.5
2019-06-07T02:32:29.649Z,1010.52
2019-06-07T02:33:28.874Z,1010.51
2019-06-07T02:34:27.958Z,1010.49
2019-06-07T02:35:26.973Z,1010.48
2019-06-07T02:36:30.299Z,1010.45
2019-06-07T02:37:27.511Z,1010.44
2019-06-07T02:38:29.299Z,1010.38
2019-06-07T02:39:28.102Z,1010.32
2019-06-07T02:40:27.853Z,1010.32
2019-06-07T02:41:27.084Z,1010.34
2019-06-07T02:42:29.458Z,1010.33
2019-06-07T02:43:27.448Z,1010.33
2019-06-07T02:44:28.525Z,1010.32
2019-06-07T02:45:26.926Z,1010.33
2019-06-07T02:46:34.597Z,1010.31
2019-06-07T02:47:28.603Z,1010.41
2019-06-07T02:48:27.795Z,1010.39
2019-06-07T02:49:28.847Z,1010.39
2019-06-07T02:50:28.289Z,1010.33
2019-06-07T02:51:27.932Z,1010.34
2019-06-07T02:52:29.188Z,1010.34
2019-06-07T02:53:27.153Z,1010.39
2019-06-07T02:54:27.308Z,1010.37
2019-06-07T02:55:29.434Z,1010.39
2019-06-07T02:57:00.120Z,1010.4
2019-06-07T02:58:00.133Z,1010.45
2019-06-07T02:59:00.157Z,1010.45
2019-06-07T03:00:07.478Z,1010.43
2019-06-07T03:01:13.784Z,1010.42
2019-06-07T03:02:13.806Z,1010.42
2019-06-07T03:03:13.827Z,1010.42
2019-06-07T03:04:13.850Z,1010.42
2019-06-07T03:05:13.872Z,1010.38
2019-06-07T03:06:13.904Z,1010.41
2019-06-07T03:07:13.916Z,1010.35
2019-06-07T03:08:13.939Z,1010.37
2019-06-07T03:09:13.964Z,1010.37
2019-06-07T03:10:13.984Z,1010.39
2019-06-07T03:11:14.012Z,1010.41
2019-06-07T03:12:14.041Z,1010.44
2019-06-07T03:13:14.051Z,1010.54
2019-06-07T03:14:14.074Z,1010.62
2019-06-07T03:15:31.934Z,1010.66
2019-06-07T03:16:14.130Z,1010.69
2019-06-07T03:17:14.142Z,1010.66
2019-06-07T03:18:14.214Z,1010.66
2019-06-07T03:19:14.187Z,1010.67
2019-06-07T03:20:14.211Z,1010.7
2019-06-07T03:21:15.445Z,1010.77
2019-06-07T03:22:14.254Z,1010.77
2019-06-07T03:23:14.277Z,1010.81
2019-06-07T03:24:14.299Z,1010.79
2019-06-07T03:25:14.324Z,1010.74
2019-06-07T03:26:14.343Z,1010.72
2019-06-07T03:27:35.792Z,1010.82
2019-06-07T03:28:34.197Z,1010.81
2019-06-07T03:29:32.165Z,1010.84
2019-06-07T03:30:51.879Z,1010.81
2019-06-07T03:31:32.455Z,1010.74
2019-06-07T03:32:36.461Z,1010.71
2019-06-07T03:33:33.179Z,1010.72
2019-06-07T03:34:34.045Z,1010.75
2019-06-07T03:35:32.563Z,1010.75
2019-06-07T03:36:32.130Z,1010.79
2019-06-07T03:37:37.487Z,1010.76
2019-06-07T03:38:33.122Z,1010.8
2019-06-07T03:39:31.342Z,1010.74
2019-06-07T03:40:31.666Z,1010.73
2019-06-07T03:41:34.244Z,1010.69
2019-06-07T03:42:31.618Z,1010.72
2019-06-07T03:44:32.854Z,1010.76
2019-06-07T03:45:32.983Z,1010.81
2019-06-07T03:46:35.078Z,1010.8
2019-06-07T03:47:32.364Z,1010.84
2019-06-07T03:48:32.804Z,1010.86
2019-06-07T03:49:35.447Z,1010.89
2019-06-07T03:50:32.260Z,1010.87
2019-06-07T03:51:32.805Z,1010.88
2019-06-07T03:52:33.600Z,1010.89
2019-06-07T03:53:32.680Z,1010.9
2019-06-07T03:54:32.068Z,1010.94
2019-06-07T03:55:35.034Z,1010.92
2019-06-07T03:56:32.904Z,1010.95
2019-06-07T03:58:17.649Z,1010.96
2019-06-07T03:58:56.839Z,1011.04
2019-06-07T04:01:56.906Z,1011.12
2019-06-07T04:02:56.928Z,1011.11
2019-06-07T04:03:56.951Z,1011.13
2019-06-07T04:04:56.974Z,1011.11
2019-06-07T04:05:56.997Z,1011.05
2019-06-07T04:06:57.020Z,1011.05
2019-06-07T04:07:57.043Z,1011.07
2019-06-07T04:08:57.066Z,1011.04
2019-06-07T04:09:57.089Z,1011.04
2019-06-07T04:10:59.987Z,1011.09
2019-06-07T04:11:57.134Z,1011.11
2019-06-07T04:12:57.160Z,1011.08
2019-06-07T04:13:57.181Z,1011.09
2019-06-07T04:14:57.203Z,1011.05
2019-06-07T04:16:57.249Z,1011.12
2019-06-07T04:18:01.647Z,1011.09
2019-06-07T04:18:57.293Z,1011.12
2019-06-07T04:19:57.320Z,1011.13
2019-06-07T04:20:57.340Z,1011.09
2019-06-07T04:21:57.363Z,1011.11
2019-06-07T04:22:57.385Z,1011.13
2019-06-07T04:23:57.409Z,1011.16
2019-06-07T04:24:57.437Z,1011.16
2019-06-07T04:25:57.454Z,1011.19
2019-06-07T04:26:57.477Z,1011.21
2019-06-07T04:27:57.501Z,1011.37
2019-06-07T04:30:11.390Z,1011.52
2019-06-07T04:31:11.413Z,1011.5
2019-06-07T04:32:11.438Z,1011.46
2019-06-07T04:33:11.461Z,1011.42
2019-06-07T04:35:11.523Z,1011.42
2019-06-07T04:36:11.535Z,1011.33
2019-06-07T04:37:11.561Z,1011.29
2019-06-07T04:38:11.585Z,1011.23
2019-06-07T04:39:11.611Z,1011.25
2019-06-07T04:40:11.634Z,1011.21
2019-06-07T04:41:11.660Z,1011.26
2019-06-07T04:42:11.689Z,1011.3
2019-06-07T04:43:11.709Z,1011.35
2019-06-07T04:44:11.735Z,1011.41
2019-06-07T04:45:32.318Z,1011.42
2019-06-07T04:46:11.786Z,1011.43
2019-06-07T04:47:11.811Z,1011.38
2019-06-07T04:48:11.837Z,1011.41
2019-06-07T04:49:11.864Z,1011.43
2019-06-07T04:50:11.890Z,1011.46
2019-06-07T04:51:11.925Z,1011.43
2019-06-07T04:52:11.942Z,1011.41
2019-06-07T04:53:12.004Z,1011.41
2019-06-07T04:54:11.996Z,1011.4
2019-06-07T04:55:12.024Z,1011.37
2019-06-07T04:56:12.053Z,1011.42
2019-06-07T04:57:12.082Z,1011.4
2019-06-07T04:58:12.106Z,1011.49
2019-06-07T04:59:12.134Z,1011.49
2019-06-07T05:01:03.970Z,1011.46
2019-06-07T05:02:03.968Z,1011.48
2019-06-07T05:04:04.022Z,1011.47
2019-06-07T05:05:04.050Z,1011.49
2019-06-07T05:06:04.093Z,1011.57
2019-06-07T05:07:04.108Z,1011.62
2019-06-07T05:08:07.346Z,1011.69
2019-06-07T05:09:04.167Z,1011.74
2019-06-07T05:10:04.323Z,1011.76
2019-06-07T05:11:04.226Z,1011.82
2019-06-07T05:12:04.256Z,1011.76
2019-06-07T05:13:04.286Z,1011.76
2019-06-07T05:14:04.316Z,1011.75
2019-06-07T05:15:04.347Z,1011.75
2019-06-07T05:16:04.422Z,1011.75
2019-06-07T05:17:04.418Z,1011.77
2019-06-07T05:18:04.439Z,1011.75
2019-06-07T05:20:04.500Z,1011.84
2019-06-07T05:21:04.533Z,1011.88
2019-06-07T05:23:04.734Z,1011.88
2019-06-07T05:24:09.406Z,1011.91
2019-06-07T05:25:04.800Z,1011.9
2019-06-07T05:26:04.859Z,1011.91
2019-06-07T05:27:04.859Z,1011.92
2019-06-07T05:28:04.890Z,1011.91
2019-06-07T05:29:04.921Z,1011.91
2019-06-07T05:30:13.486Z,1011.93
2019-06-07T05:31:12.613Z,1011.89
2019-06-07T05:32:12.642Z,1011.94
2019-06-07T05:33:12.672Z,1011.97
2019-06-07T05:35:12.810Z,1011.96
2019-06-07T05:36:12.768Z,1011.98
2019-06-07T05:37:12.814Z,1011.96
2019-06-07T05:38:12.832Z,1011.94
2019-06-07T05:39:12.883Z,1011.92
2019-06-07T05:40:12.901Z,1011.95
2019-06-07T05:41:12.933Z,1011.93
2019-06-07T05:42:12.963Z,1011.97
2019-06-07T05:43:12.995Z,1011.98
2019-06-07T05:44:14.974Z,1012.01
2019-06-07T05:45:13.061Z,1011.98
2019-06-07T05:46:13.094Z,1012.02
2019-06-07T05:47:13.127Z,1012.01
2019-06-07T05:48:13.160Z,1011.98
2019-06-07T05:50:38.312Z,1011.98
2019-06-07T05:51:13.274Z,1012
2019-06-07T05:52:13.295Z,1012.02
2019-06-07T05:53:13.327Z,1011.98
2019-06-07T05:54:13.361Z,1012.03
2019-06-07T05:55:13.393Z,1012.02
2019-06-07T05:56:14.088Z,1012.04
2019-06-07T05:57:13.460Z,1012.04
2019-06-07T05:58:13.493Z,1012.02
2019-06-07T05:59:13.530Z,1012.02
2019-06-07T06:00:13.561Z,1012.01
2019-06-07T06:01:41.974Z,1011.98
2019-06-07T06:02:27.924Z,1011.95
2019-06-07T06:03:27.959Z,1011.96
2019-06-07T06:04:27.994Z,1011.95
2019-06-07T06:05:34.097Z,1011.94
2019-06-07T06:06:28.060Z,1011.91
2019-06-07T06:08:28.172Z,1011.85
2019-06-07T06:09:28.163Z,1011.82
2019-06-07T06:10:28.196Z,1011.85
2019-06-07T06:11:42.895Z,1011.79
2019-06-07T06:12:40.489Z,1011.79
2019-06-07T06:13:36.843Z,1011.78
2019-06-07T06:14:39.497Z,1011.79
2019-06-07T06:15:45.051Z,1011.75
2019-06-07T06:16:37.116Z,1011.75
2019-06-07T06:17:37.578Z,1011.72
2019-06-07T06:18:35.899Z,1011.75
2019-06-07T06:19:36.800Z,1011.72
2019-06-07T06:21:00.710Z,1011.75
2019-06-07T06:21:36.171Z,1011.79
2019-06-07T06:22:37.285Z,1011.84
2019-06-07T06:23:39.423Z,1011.86
2019-06-07T06:24:37.161Z,1011.9
2019-06-07T06:25:57.303Z,1011.9
2019-06-07T06:26:57.071Z,1012
2019-06-07T06:28:19.271Z,1012.05
2019-06-07T06:29:19.306Z,1012.08
2019-06-07T06:30:19.342Z,1012.06
2019-06-07T06:31:19.377Z,1012.07
2019-06-07T06:33:31.101Z,1012.08
2019-06-07T06:34:19.484Z,1012.1
2019-06-07T06:35:19.518Z,1012.11
2019-06-07T06:37:19.590Z,1012.09
2019-06-07T06:38:19.627Z,1012.1
2019-06-07T06:39:19.661Z,1012.11
2019-06-07T06:40:19.696Z,1012.12
2019-06-07T06:41:20.983Z,1012.11
2019-06-07T06:42:19.767Z,1012.12
2019-06-07T06:43:19.808Z,1012.12
2019-06-07T06:44:19.842Z,1012.15
2019-06-07T06:45:19.876Z,1012.14
2019-06-07T06:46:37.263Z,1012.17
2019-06-07T06:47:20.052Z,1012.15
2019-06-07T06:48:19.985Z,1012.12
2019-06-07T06:49:20.020Z,1012.12
2019-06-07T06:50:20.056Z,1012.12
2019-06-07T06:52:20.184Z,1012.11
2019-06-07T06:53:20.163Z,1012.1
2019-06-07T06:54:39.250Z,1012.13
2019-06-07T06:55:20.236Z,1012.07
2019-06-07T06:56:20.272Z,1012.13
2019-06-07T06:57:20.545Z,1012.1
2019-06-07T06:58:20.344Z,1012.16
2019-06-07T06:59:37.837Z,1012.24
2019-06-07T07:00:20.416Z,1012.39
2019-06-07T07:01:20.453Z,1012.39
2019-06-07T07:02:20.509Z,1012.39
2019-06-07T07:03:48.078Z,1012.39
2019-06-07T07:04:33.454Z,1012.37
2019-06-07T07:05:33.490Z,1012.37
2019-06-07T07:06:33.527Z,1012.42
2019-06-07T07:07:33.563Z,1012.41
2019-06-07T07:08:33.600Z,1012.44
2019-06-07T07:09:33.635Z,1012.5
2019-06-07T07:10:33.672Z,1012.52
2019-06-07T07:11:33.721Z,1012.5
2019-06-07T07:12:33.742Z,1012.56
2019-06-07T07:13:33.779Z,1012.55
2019-06-07T07:14:33.817Z,1012.57
2019-06-07T07:15:33.850Z,1012.57
2019-06-07T07:16:33.887Z,1012.59
2019-06-07T07:18:33.960Z,1012.66
2019-06-07T07:19:34.009Z,1012.66
2019-06-07T07:20:34.032Z,1012.65
2019-06-07T07:21:34.068Z,1012.67
2019-06-07T07:22:34.103Z,1012.67
2019-06-07T07:23:34.140Z,1012.72
2019-06-07T07:24:34.177Z,1012.84
2019-06-07T07:25:34.213Z,1012.78
2019-06-07T07:26:34.250Z,1012.86
2019-06-07T07:27:34.285Z,1012.88
2019-06-07T07:28:34.322Z,1012.9
2019-06-07T07:29:34.359Z,1012.98
2019-06-07T07:30:41.798Z,1013.03
2019-06-07T07:31:40.486Z,1013.02
2019-06-07T07:32:40.519Z,1013.07
2019-06-07T07:34:49.954Z,1013.07
2019-06-07T07:36:10.636Z,1013.13
2019-06-07T07:36:59.494Z,1013.12
2019-06-07T07:37:59.522Z,1013.12
2019-06-07T07:39:00.210Z,1013.13
2019-06-07T07:40:01.639Z,1013.15
2019-06-07T07:42:21.438Z,1013.15
2019-06-07T07:43:18.518Z,1013.13
2019-06-07T07:44:18.559Z,1013.13
2019-06-07T07:45:18.591Z,1013.11
2019-06-07T07:46:35.445Z,1013.08
2019-06-07T07:47:18.666Z,1013.02
2019-06-07T07:48:18.926Z,1013.01
2019-06-07T07:49:18.739Z,1012.95
2019-06-07T07:50:18.779Z,1012.89
2019-06-07T07:51:18.811Z,1012.86
2019-06-07T07:52:18.847Z,1012.81
2019-06-07T07:53:18.884Z,1012.83
2019-06-07T07:54:18.931Z,1012.8
2019-06-07T07:55:18.964Z,1012.73
2019-06-07T07:57:19.029Z,1012.58
2019-06-07T07:58:19.071Z,1012.57
2019-06-07T07:59:19.101Z,1012.51
2019-06-07T08:01:10.513Z,1012.44
2019-06-07T08:02:05.126Z,1012.44
2019-06-07T08:03:05.161Z,1012.4
2019-06-07T08:04:05.195Z,1012.35
2019-06-07T08:06:07.399Z,1012.35
2019-06-07T08:07:07.433Z,1012.36
2019-06-07T08:08:08.018Z,1012.33
2019-06-07T08:09:07.506Z,1012.34
2019-06-07T08:10:07.542Z,1012.29
2019-06-07T08:11:07.581Z,1012.21
2019-06-07T08:13:25.228Z,1012.26
2019-06-07T08:14:16.700Z,1012.26
2019-06-07T08:15:16.742Z,1012.17
2019-06-07T08:16:18.763Z,1012.12
2019-06-07T08:17:16.811Z,1012.13
2019-06-07T08:18:16.846Z,1012.12
2019-06-07T08:19:16.882Z,1012.12
2019-06-07T08:20:16.917Z,1012.12
2019-06-07T08:21:25.056Z,1012.12
2019-06-07T08:22:16.988Z,1012.19
2019-06-07T08:23:17.028Z,1012.13
2019-06-07T08:24:17.062Z,1012.13
2019-06-07T08:25:17.096Z,1012.12
2019-06-07T08:27:25.657Z,1012.1
2019-06-07T08:28:17.202Z,1012.08
2019-06-07T08:29:17.239Z,1012.09
2019-06-07T08:30:46.924Z,1012.09
2019-06-07T08:31:17.313Z,1012.15
2019-06-07T08:32:17.346Z,1012.08
2019-06-07T08:33:25.762Z,1012.02
2019-06-07T08:34:17.418Z,1011.96
2019-06-07T08:35:57.188Z,1011.92
2019-06-07T08:36:46.550Z,1011.88
2019-06-07T08:39:07.835Z,1011.84
2019-06-07T08:40:07.195Z,1011.94
2019-06-07T08:41:11.657Z,1011.99
2019-06-07T08:43:22.380Z,1012.09
2019-06-07T08:44:24.007Z,1012.14
2019-06-07T08:46:22.486Z,1012.04
2019-06-07T08:47:22.524Z,1011.75
2019-06-07T08:48:27.709Z,1011.72
2019-06-07T08:49:22.592Z,1011.58
2019-06-07T08:50:22.627Z,1011.46
2019-06-07T08:51:22.666Z,1011.47
2019-06-07T08:52:22.698Z,1011.55
2019-06-07T08:53:22.731Z,1011.46
2019-06-07T08:54:23.515Z,1011.42
2019-06-07T08:55:22.799Z,1011.49
2019-06-07T08:56:22.835Z,1011.48
2019-06-07T08:57:22.869Z,1011.47
2019-06-07T08:58:22.906Z,1011.45
2019-06-07T08:59:22.938Z,1011.45
2019-06-07T09:01:23.006Z,1011.49
2019-06-07T09:02:24.198Z,1011.6
2019-06-07T09:03:23.072Z,1011.65
2019-06-07T09:04:23.124Z,1011.6
2019-06-07T09:05:23.139Z,1011.6
2019-06-07T09:07:25.242Z,1011.59
2019-06-07T09:08:30.245Z,1011.54
2019-06-07T09:09:25.349Z,1011.51
2019-06-07T09:10:25.334Z,1011.5
2019-06-07T09:11:25.547Z,1011.49
2019-06-07T09:12:25.399Z,1011.46
2019-06-07T09:13:25.438Z,1011.45
2019-06-07T09:14:25.466Z,1011.43
2019-06-07T09:15:25.500Z,1011.43
2019-06-07T09:16:25.533Z,1011.44
2019-06-07T09:17:25.569Z,1011.4
2019-06-07T09:18:44.158Z,1011.39
2019-06-07T09:19:25.636Z,1011.33
2019-06-07T09:21:25.704Z,1011.31
2019-06-07T09:22:25.738Z,1011.32
2019-06-07T09:23:25.771Z,1011.35
2019-06-07T09:24:25.809Z,1011.35
2019-06-07T09:25:25.842Z,1011.33
2019-06-07T09:26:25.873Z,1011.28
2019-06-07T09:27:25.907Z,1011.31
2019-06-07T09:28:25.941Z,1011.26
2019-06-07T09:29:25.974Z,1011.31
2019-06-07T09:30:26.009Z,1011.28
2019-06-07T09:31:48.782Z,1011.27
2019-06-07T09:32:26.077Z,1011.27
2019-06-07T09:33:26.110Z,1011.27
2019-06-07T09:34:26.240Z,1011.24
2019-06-07T09:35:26.178Z,1011.22
2019-06-07T09:36:26.214Z,1011.25
2019-06-07T09:38:32.037Z,1011.27
2019-06-07T09:39:32.071Z,1011.22
2019-06-07T09:40:32.104Z,1011.22
2019-06-07T09:41:46.684Z,1011.21
2019-06-07T09:44:29.573Z,1011.24
2019-06-07T09:45:29.602Z,1011.21
2019-06-07T09:46:29.660Z,1011.23
2019-06-07T09:47:32.755Z,1011.19
2019-06-07T09:49:36.770Z,1011.22
2019-06-07T09:50:36.802Z,1011.22
2019-06-07T09:51:36.835Z,1011.23
2019-06-07T09:52:56.885Z,1011.24
2019-06-07T09:55:04.321Z,1011.22
2019-06-07T09:55:45.671Z,1011.22
2019-06-07T09:56:46.287Z,1011.18
2019-06-07T09:57:45.738Z,1011.25
2019-06-07T09:58:52.366Z,1011.2
2019-06-07T09:59:46.775Z,1011.19
2019-06-07T10:00:45.854Z,1011.16
2019-06-07T10:01:45.872Z,1011.14
2019-06-07T10:02:45.907Z,1011.15
2019-06-07T10:04:45.973Z,1011.25
2019-06-07T10:05:46.006Z,1011.2
2019-06-07T10:06:46.038Z,1011.24
2019-06-07T10:08:00.417Z,1011.22
2019-06-07T10:11:33.017Z,1011.24
2019-06-07T10:12:33.052Z,1011.19
2019-06-07T10:13:33.084Z,1011.14
2019-06-07T10:14:33.131Z,1011.13
2019-06-07T10:15:33.150Z,1011.22
2019-06-07T10:17:33.216Z,1011.16
2019-06-07T10:18:33.250Z,1011.14
2019-06-07T10:19:33.285Z,1011.09
2019-06-07T10:20:33.316Z,1011.07
2019-06-07T10:21:33.347Z,1011.07
2019-06-07T10:22:33.380Z,1011.06
2019-06-07T10:23:33.413Z,1011.08
2019-06-07T10:24:33.454Z,1011.06
2019-06-07T10:25:33.478Z,1011.03
2019-06-07T10:26:33.511Z,1011.04
2019-06-07T10:27:33.543Z,1011
2019-06-07T10:28:33.577Z,1011.01
2019-06-07T10:29:33.611Z,1011.02
2019-06-07T10:30:33.646Z,1011.01
2019-06-07T10:31:33.674Z,1010.99
2019-06-07T10:33:33.737Z,1011.04
2019-06-07T10:34:33.772Z,1011.02
2019-06-07T10:35:33.806Z,1011.04
2019-06-07T10:36:33.835Z,1011.01
2019-06-07T10:37:33.868Z,1011
2019-06-07T10:38:33.899Z,1011.03
2019-06-07T10:39:47.520Z,1011.01
2019-06-07T10:40:33.963Z,1011.03
2019-06-07T10:41:33.995Z,1010.98
2019-06-07T10:42:34.028Z,1011
2019-06-07T10:43:34.059Z,1011
2019-06-07T10:44:34.092Z,1010.96
2019-06-07T10:45:34.129Z,1010.97
2019-06-07T10:46:34.160Z,1010.93
2019-06-07T10:47:34.187Z,1010.89
2019-06-07T10:49:34.253Z,1010.93
2019-06-07T10:50:34.283Z,1010.87
2019-06-07T10:51:34.313Z,1010.88
2019-06-07T10:52:34.346Z,1010.85
2019-06-07T10:53:34.377Z,1010.89
2019-06-07T10:54:34.407Z,1010.85
2019-06-07T10:55:34.439Z,1010.83
2019-06-07T10:56:34.471Z,1010.81
2019-06-07T10:57:34.504Z,1010.75
2019-06-07T10:58:34.532Z,1010.73
2019-06-07T10:59:34.563Z,1010.84
2019-06-07T11:00:34.595Z,1010.8
2019-06-07T11:01:34.625Z,1010.77
2019-06-07T11:02:34.656Z,1010.72
2019-06-07T11:04:34.720Z,1010.75
2019-06-07T11:05:34.754Z,1010.8
2019-06-07T11:06:34.785Z,1010.77
2019-06-07T11:07:34.809Z,1010.73
2019-06-07T11:08:34.884Z,1010.75
2019-06-07T11:09:34.870Z,1010.71
2019-06-07T11:10:34.902Z,1010.7
2019-06-07T11:11:34.930Z,1010.75
2019-06-07T11:12:34.967Z,1010.76
2019-06-07T11:13:34.991Z,1010.73
2019-06-07T11:14:35.021Z,1010.76
2019-06-07T11:15:35.052Z,1010.75
2019-06-07T11:16:35.081Z,1010.7
2019-06-07T11:17:35.111Z,1010.71
2019-06-07T11:18:35.143Z,1010.7
2019-06-07T11:19:35.171Z,1010.66
2019-06-07T11:20:35.202Z,1010.65
2019-06-07T11:21:35.231Z,1010.76
2019-06-07T11:22:35.268Z,1010.75
2019-06-07T11:23:35.290Z,1010.75
2019-06-07T11:24:35.321Z,1010.73
2019-06-07T11:25:35.354Z,1010.72
2019-06-07T11:26:35.381Z,1010.66
2019-06-07T11:27:35.410Z,1010.62
2019-06-07T11:28:35.440Z,1010.62
2019-06-07T11:29:35.471Z,1010.62
2019-06-07T11:30:35.500Z,1010.55
2019-06-07T11:31:35.528Z,1010.53
2019-06-07T11:32:35.558Z,1010.53
2019-06-07T11:33:35.587Z,1010.52
2019-06-07T11:34:35.615Z,1010.57
2019-06-07T11:36:35.674Z,1010.49
2019-06-07T11:37:35.704Z,1010.5
2019-06-07T11:38:35.732Z,1010.43
2019-06-07T11:39:35.762Z,1010.43
2019-06-07T11:40:36.175Z,1010.45
2019-06-07T11:41:35.820Z,1010.45
2019-06-07T11:42:35.849Z,1010.47
2019-06-07T11:43:35.877Z,1010.46
2019-06-07T11:44:35.908Z,1010.44
2019-06-07T11:45:35.934Z,1010.48
2019-06-07T11:46:35.975Z,1010.48
2019-06-07T11:47:35.994Z,1010.45
2019-06-07T11:48:36.022Z,1010.48
2019-06-07T11:49:36.050Z,1010.4
2019-06-07T11:50:36.079Z,1010.36
2019-06-07T11:52:36.137Z,1010.36
2019-06-07T11:53:36.167Z,1010.33
2019-06-07T11:54:36.195Z,1010.35
2019-06-07T11:55:36.222Z,1010.34
2019-06-07T11:56:36.250Z,1010.32
2019-06-07T11:57:36.279Z,1010.32
2019-06-07T11:58:36.307Z,1010.32
2019-06-07T11:59:36.336Z,1010.25
2019-06-07T12:00:36.366Z,1010.29
2019-06-07T12:01:37.321Z,1010.28
2019-06-07T12:02:36.425Z,1010.24
2019-06-07T12:03:36.451Z,1010.25
2019-06-07T12:04:36.481Z,1010.27
2019-06-07T12:05:36.511Z,1010.25
2019-06-07T12:06:36.537Z,1010.23
2019-06-07T12:08:36.596Z,1010.23
2019-06-07T12:09:36.622Z,1010.17
2019-06-07T12:10:42.298Z,1010.15
2019-06-07T12:11:36.680Z,1010.2
2019-06-07T12:12:36.709Z,1010.18
2019-06-07T12:13:36.739Z,1010.15
2019-06-07T12:14:36.766Z,1010.21
2019-06-07T12:15:36.795Z,1010.18
2019-06-07T12:16:36.823Z,1010.17
2019-06-07T12:17:36.855Z,1010.13
2019-06-07T12:18:36.881Z,1010.13
2019-06-07T12:19:36.909Z,1010.11
2019-06-07T12:20:36.937Z,1010.09
2019-06-07T12:21:36.966Z,1010.09
2019-06-07T12:22:37.008Z,1010.12
2019-06-07T12:24:37.055Z,1010.1
2019-06-07T12:25:37.081Z,1010.11
2019-06-07T12:26:37.109Z,1010.05
2019-06-07T12:27:37.137Z,1010.09
2019-06-07T12:28:37.167Z,1010.04
2019-06-07T12:29:37.194Z,1010.03
2019-06-07T12:30:37.222Z,1010.04
2019-06-07T12:31:37.252Z,1010
2019-06-07T12:32:37.285Z,1010.02
2019-06-07T12:33:37.307Z,1010.06
2019-06-07T12:34:37.338Z,1010.07
2019-06-07T12:35:37.365Z,1010.06
2019-06-07T12:36:37.394Z,1010
2019-06-07T12:37:44.057Z,1010.01
2019-06-07T12:39:37.479Z,1009.98
2019-06-07T12:40:37.506Z,1009.94
2019-06-07T12:41:37.534Z,1009.95
2019-06-07T12:42:37.751Z,1009.89
2019-06-07T12:43:37.590Z,1009.87
2019-06-07T12:44:37.619Z,1009.88
2019-06-07T12:45:45.125Z,1009.91
2019-06-07T12:46:37.675Z,1009.91
2019-06-07T12:47:37.714Z,1009.84
2019-06-07T12:48:37.731Z,1009.84
2019-06-07T12:49:37.759Z,1009.84
2019-06-07T12:50:42.861Z,1009.74
2019-06-07T12:51:37.814Z,1009.74
2019-06-07T12:52:37.845Z,1009.7
2019-06-07T12:53:37.876Z,1009.73
2019-06-07T12:54:37.899Z,1009.77
2019-06-07T12:55:37.927Z,1009.76
2019-06-07T12:56:37.954Z,1009.78
2019-06-07T12:57:37.982Z,1009.77
2019-06-07T12:58:39.507Z,1009.73
2019-06-07T12:59:38.039Z,1009.75
2019-06-07T13:00:38.069Z,1009.71
2019-06-07T13:01:38.119Z,1009.68
2019-06-07T13:02:38.122Z,1009.67
2019-06-07T13:03:38.154Z,1009.67
2019-06-07T13:04:38.177Z,1009.67
2019-06-07T13:05:38.205Z,1009.66
2019-06-07T13:06:38.240Z,1009.67
2019-06-07T13:07:38.261Z,1009.61
2019-06-07T13:08:38.288Z,1009.64
2019-06-07T13:09:38.315Z,1009.61
2019-06-07T13:11:38.372Z,1009.57
2019-06-07T13:12:38.563Z,1009.6
2019-06-07T13:13:38.427Z,1009.58
2019-06-07T13:14:38.455Z,1009.59